Terminal Aerodrome Forecast
Issued by NWS

Home | Current Version | Previous Version | Text Only | Print | Product List | Glossary On
Versions: 1 2 3 4 5 6 7 8 9 10 11 12 13 14 15 16 17 18 19 20 21 22 23 24 25 26 27 28 29 30 31 32
000
FTUS46 KPDT 240520
TAFRDM
TAF
KRDM 240520Z 2406/2506 30008G15KT P6SM FEW040 SCT060 BKN080
     FM241000 VRB04KT P6SM FEW070 SCT090
     FM242100 33008G15KT P6SM FEW120 SCT250=

USA.gov is the U.S. government's official web portal to all federal, state and local government web resources and services.